createdAt,value
2019-04-01T00:01:59.376Z,3.13
2019-04-01T00:04:29.924Z,3.10
2019-04-01T00:07:00.461Z,2.90
2019-04-01T00:09:31.040Z,2.67
2019-04-01T00:12:03.143Z,3.30
2019-04-01T00:14:33.656Z,3.60
2019-04-01T00:17:04.276Z,3.30
2019-04-01T00:19:34.829Z,3.83
2019-04-01T00:22:05.334Z,3.73
2019-04-01T00:24:35.900Z,3.37
2019-04-01T00:27:06.443Z,3.30
2019-04-01T00:29:38.002Z,3.03
2019-04-01T00:32:08.478Z,3.23
2019-04-01T00:34:39.021Z,3.17
2019-04-01T00:39:58.647Z,3.57
2019-04-01T00:42:43.312Z,3.13
2019-04-01T00:45:16.822Z,4.30
2019-04-01T00:47:47.423Z,3.20
2019-04-01T00:50:19.033Z,2.67
2019-04-01T00:52:49.585Z,2.83
2019-04-01T00:55:20.201Z,3.50
2019-04-01T00:57:50.779Z,3.07
2019-04-01T01:00:21.299Z,3.10
2019-04-01T01:02:51.869Z,3.73
2019-04-01T01:05:22.464Z,3.13
2019-04-01T01:07:52.999Z,3.10
2019-04-01T01:10:23.525Z,3.07
2019-04-01T01:12:54.069Z,3.00
2019-04-01T01:15:24.615Z,3.00
2019-04-01T01:17:55.207Z,3.83
2019-04-01T01:20:25.742Z,3.37
2019-04-01T01:22:56.217Z,3.13
2019-04-01T01:25:26.707Z,2.70
2019-04-01T01:27:57.241Z,3.40
2019-04-01T01:30:27.726Z,2.60
2019-04-01T01:32:58.301Z,2.83
2019-04-01T01:35:28.868Z,3.40
2019-04-01T01:37:59.446Z,3.00
2019-04-01T01:40:30.076Z,3.50
2019-04-01T01:43:00.655Z,2.80
2019-04-01T01:45:31.238Z,3.47
2019-04-01T01:48:01.785Z,2.77
2019-04-01T01:50:32.376Z,2.70
2019-04-01T01:53:02.950Z,3.10
2019-04-01T01:55:34.526Z,3.07
2019-04-01T01:58:05.093Z,2.90
2019-04-01T02:00:36.444Z,2.43
2019-04-01T02:03:06.975Z,2.73
2019-04-01T02:05:37.556Z,3.30
2019-04-01T02:08:08.031Z,3.00
2019-04-01T02:10:38.596Z,2.70
2019-04-01T02:13:09.200Z,2.70
2019-04-01T02:15:39.691Z,2.80
2019-04-01T02:18:10.254Z,3.80
2019-04-01T02:20:40.811Z,3.27
2019-04-01T02:23:12.436Z,3.07
2019-04-01T02:25:42.924Z,2.80
2019-04-01T02:28:13.556Z,2.83
2019-04-01T02:30:44.095Z,3.47
2019-04-01T02:33:14.651Z,2.77
2019-04-01T02:35:45.122Z,3.40
2019-04-01T02:38:15.640Z,4.03
2019-04-01T02:40:46.212Z,3.57
2019-04-01T02:43:16.833Z,4.03
2019-04-01T02:45:47.310Z,3.43
2019-04-01T02:48:17.812Z,3.83
2019-04-01T02:50:48.377Z,4.30
2019-04-01T02:53:18.980Z,3.57
2019-04-01T02:55:49.505Z,3.77
2019-04-01T02:58:19.994Z,3.37
2019-04-01T03:00:50.450Z,3.10
2019-04-01T03:03:21.016Z,3.10
2019-04-01T03:05:51.541Z,3.67
2019-04-01T03:08:22.087Z,4.17
2019-04-01T03:10:51.876Z,3.30
2019-04-01T03:13:22.272Z,3.83
2019-04-01T03:15:52.737Z,3.60
2019-04-01T03:18:23.231Z,4.27
2019-04-01T03:20:53.762Z,3.77
2019-04-01T03:23:24.313Z,4.53
2019-04-01T03:25:55.282Z,4.20
2019-04-01T03:28:25.849Z,4.50
2019-04-01T03:30:56.398Z,4.40
2019-04-01T03:33:27.923Z,3.73
2019-04-01T03:35:58.346Z,4.67
2019-04-01T03:38:28.882Z,4.53
2019-04-01T03:40:59.424Z,4.57
2019-04-01T03:43:29.952Z,4.13
2019-04-01T03:46:00.501Z,4.20
2019-04-01T03:48:30.983Z,4.77
2019-04-01T03:51:01.447Z,4.90
2019-04-01T03:53:31.973Z,4.93
2019-04-01T03:56:02.513Z,4.60
2019-04-01T03:58:33.040Z,4.90
2019-04-01T04:01:03.530Z,4.77
2019-04-01T04:03:35.058Z,5.00
2019-04-01T04:06:05.601Z,5.40
2019-04-01T04:08:36.127Z,5.13
2019-04-01T04:11:06.676Z,6.17
2019-04-01T04:13:37.220Z,5.13
2019-04-01T04:16:07.770Z,6.00
2019-04-01T04:18:38.217Z,5.93
2019-04-01T04:21:08.715Z,5.70
2019-04-01T04:23:39.259Z,6.80
2019-04-01T04:26:09.720Z,5.77
2019-04-01T04:28:40.275Z,6.37
2019-04-01T04:31:10.808Z,6.00
2019-04-01T04:33:41.383Z,6.47
2019-04-01T04:36:11.921Z,5.87
2019-04-01T04:38:43.560Z,5.97
2019-04-01T04:41:14.106Z,6.37
2019-04-01T04:43:44.572Z,6.00
2019-04-01T04:46:15.052Z,6.67
2019-04-01T04:48:45.621Z,6.83
2019-04-01T04:51:16.184Z,6.93
2019-04-01T04:53:46.703Z,7.23
2019-04-01T04:56:17.192Z,6.90
2019-04-01T04:58:47.745Z,7.50
2019-04-01T05:01:18.396Z,6.87
2019-04-01T05:03:48.955Z,6.97
2019-04-01T05:06:19.448Z,7.67
2019-04-01T05:08:49.931Z,8.07
2019-04-01T05:11:20.448Z,7.80
2019-04-01T05:13:51.194Z,7.00
2019-04-01T05:16:21.668Z,7.97
2019-04-01T05:18:52.230Z,7.47
2019-04-01T05:21:23.987Z,8.13
2019-04-01T05:23:55.931Z,7.27
2019-04-01T05:26:26.911Z,7.40
2019-04-01T05:28:58.831Z,6.90
2019-04-01T05:31:31.105Z,7.63
2019-04-01T05:34:02.782Z,7.83
2019-04-01T05:36:33.541Z,9.37
2019-04-01T05:39:05.653Z,6.97
2019-04-01T05:41:37.147Z,7.80
2019-04-01T05:44:08.543Z,8.27
2019-04-01T05:46:40.180Z,8.07
2019-04-01T05:49:10.846Z,7.87
2019-04-01T05:51:41.412Z,7.60
2019-04-01T05:54:11.911Z,7.83
2019-04-01T05:56:42.524Z,7.50
2019-04-01T05:59:13.198Z,7.90
2019-04-01T06:01:45.730Z,7.97
2019-04-01T06:04:16.214Z,7.83
2019-04-01T06:09:35.620Z,7.23
2019-04-01T06:12:10.480Z,7.23
2019-04-01T06:14:41.018Z,7.73
2019-04-01T06:17:11.584Z,7.80
2019-04-01T06:19:42.080Z,8.47
2019-04-01T06:22:12.578Z,7.87
2019-04-01T06:24:43.080Z,8.10
2019-04-01T06:27:13.948Z,7.43
2019-04-01T06:29:45.367Z,8.17
2019-04-01T06:32:16.682Z,7.90
2019-04-01T06:34:52.894Z,6.50
2019-04-01T06:37:19.586Z,8.03
2019-04-01T06:39:50.078Z,7.20
2019-04-01T06:42:20.951Z,6.47
2019-04-01T06:44:51.471Z,6.57
2019-04-01T06:47:22.094Z,7.00
2019-04-01T06:49:52.769Z,6.97
2019-04-01T06:52:23.391Z,6.53
2019-04-01T06:54:53.975Z,6.40
2019-04-01T06:57:24.639Z,6.20
2019-04-01T06:59:55.165Z,5.67
2019-04-01T07:02:25.701Z,6.73
2019-04-01T07:04:56.273Z,7.23
2019-04-01T07:07:27.064Z,6.27
2019-04-01T07:09:57.529Z,6.40
2019-04-01T07:12:28.147Z,6.30
2019-04-01T07:14:58.836Z,5.80
2019-04-01T07:17:29.464Z,6.17
2019-04-01T07:20:00.024Z,6.17
2019-04-01T07:22:30.575Z,5.20
2019-04-01T07:25:01.149Z,5.57
2019-04-01T07:27:32.009Z,5.43
2019-04-01T07:30:02.954Z,6.07
2019-04-01T07:32:34.202Z,5.43
2019-04-01T07:35:04.959Z,4.93
2019-04-01T07:37:35.742Z,6.43
2019-04-01T07:40:07.063Z,5.57
2019-04-01T07:42:37.646Z,6.37
2019-04-01T07:45:08.675Z,6.67
2019-04-01T07:47:39.738Z,6.17
2019-04-01T07:50:12.459Z,7.13
2019-04-01T07:52:44.575Z,6.57
2019-04-01T07:55:15.224Z,5.77
2019-04-01T07:57:45.729Z,5.97
2019-04-01T08:02:51.925Z,6.00
2019-04-01T08:05:25.866Z,6.37
2019-04-01T08:07:54.869Z,5.70
2019-04-01T08:10:25.444Z,5.57
2019-04-01T08:12:55.972Z,6.77
2019-04-01T08:15:26.552Z,6.60
2019-04-01T08:17:57.207Z,5.90
2019-04-01T08:20:27.684Z,5.30
2019-04-01T08:22:58.231Z,5.27
2019-04-01T08:25:28.715Z,5.90
2019-04-01T08:27:59.367Z,5.80
2019-04-01T08:30:29.879Z,5.30
2019-04-01T08:33:00.744Z,5.77
2019-04-01T08:35:31.317Z,7.23
2019-04-01T08:40:50.679Z,6.53
2019-04-01T08:43:21.240Z,6.23
2019-04-01T08:45:51.691Z,5.87
2019-04-01T08:48:22.260Z,5.53
2019-04-01T08:50:52.717Z,5.60
2019-04-01T08:53:23.293Z,6.97
2019-04-01T08:56:00.627Z,6.10
2019-04-01T08:58:26.072Z,5.93
2019-04-01T09:00:56.556Z,5.63
2019-04-01T09:03:27.094Z,5.87
2019-04-01T09:05:57.724Z,5.60
2019-04-01T09:08:29.601Z,5.43
2019-04-01T09:11:00.243Z,5.57
2019-04-01T09:13:31.169Z,5.40
2019-04-01T09:16:02.461Z,6.40
2019-04-01T09:18:33.011Z,6.13
2019-04-01T09:21:03.577Z,5.97
2019-04-01T09:23:34.136Z,6.50
2019-04-01T09:26:05.804Z,6.40
2019-04-01T09:28:37.011Z,6.30
2019-04-01T09:31:08.573Z,6.07
2019-04-01T09:33:39.148Z,6.03
2019-04-01T09:36:09.662Z,6.63
2019-04-01T09:38:40.223Z,6.30
2019-04-01T09:41:13.256Z,6.07
2019-04-01T09:43:42.951Z,5.43
2019-04-01T09:46:13.473Z,6.07
2019-04-01T09:48:44.024Z,7.40
2019-04-01T09:51:14.689Z,6.97
2019-04-01T09:53:45.272Z,6.57
2019-04-01T09:56:15.805Z,6.93
2019-04-01T09:58:46.355Z,5.87
2019-04-01T10:01:16.929Z,6.47
2019-04-01T10:03:48.465Z,6.40
2019-04-01T10:06:19.004Z,6.67
2019-04-01T10:08:49.652Z,6.77
2019-04-01T10:11:21.223Z,6.77
2019-04-01T10:13:51.784Z,6.00
2019-04-01T10:16:22.312Z,5.50
2019-04-01T10:18:52.884Z,6.53
2019-04-01T10:21:23.417Z,5.93
2019-04-01T10:23:54.931Z,7.03
2019-04-01T10:26:25.475Z,6.67
2019-04-01T10:28:55.996Z,6.73
2019-04-01T10:31:26.547Z,6.80
2019-04-01T10:33:57.052Z,6.13
2019-04-01T10:39:16.755Z,5.90
2019-04-01T10:41:47.272Z,6.50
2019-04-01T10:44:17.816Z,5.97
2019-04-01T10:46:48.348Z,6.73
2019-04-01T10:49:18.953Z,6.00
2019-04-01T10:51:49.637Z,6.20
2019-04-01T10:54:20.122Z,6.87
2019-04-01T10:56:50.713Z,5.90
2019-04-01T10:59:21.264Z,5.90
2019-04-01T11:04:41.374Z,5.93
2019-04-01T11:07:11.808Z,6.00
2019-04-01T11:09:42.513Z,6.83
2019-04-01T11:12:12.984Z,6.03
2019-04-01T11:14:43.483Z,6.07
2019-04-01T11:17:15.265Z,5.37
2019-04-01T11:19:46.739Z,5.60
2019-04-01T11:22:17.332Z,5.17
2019-04-01T11:24:47.944Z,5.50
2019-04-01T11:27:18.527Z,6.50
2019-04-01T11:29:48.995Z,5.90
2019-04-01T11:32:19.568Z,5.57
2019-04-01T11:34:50.107Z,5.97
2019-04-01T11:37:20.634Z,6.13
2019-04-01T11:39:51.181Z,5.20
2019-04-01T11:42:22.964Z,5.73
2019-04-01T11:44:53.691Z,5.37
2019-04-01T11:47:24.187Z,5.50
2019-04-01T11:49:54.770Z,5.40
2019-04-01T11:52:25.344Z,5.23
2019-04-01T11:54:55.900Z,5.20
2019-04-01T11:57:26.445Z,5.70
2019-04-01T11:59:57.024Z,4.97
2019-04-01T12:02:27.594Z,4.73
2019-04-01T12:04:58.141Z,5.27
2019-04-01T12:07:28.659Z,4.93
2019-04-01T12:09:59.166Z,5.83
2019-04-01T12:12:29.700Z,5.00
2019-04-01T12:15:00.395Z,6.03
2019-04-01T12:17:30.951Z,5.60
2019-04-01T12:20:01.512Z,6.27
2019-04-01T12:22:32.035Z,6.73
2019-04-01T12:25:02.562Z,6.87
2019-04-01T12:27:33.092Z,5.87
2019-04-01T12:30:03.856Z,5.40
2019-04-01T12:32:34.502Z,5.40
2019-04-01T12:35:05.640Z,5.90
2019-04-01T12:37:36.218Z,5.83
2019-04-01T12:40:07.470Z,5.83
2019-04-01T12:42:38.019Z,6.67
2019-04-01T12:45:08.743Z,5.53
2019-04-01T12:47:43.096Z,5.77
2019-04-01T12:50:12.565Z,6.77
2019-04-01T12:52:43.048Z,6.00
2019-04-01T12:55:13.591Z,5.73
2019-04-01T12:57:44.098Z,6.57
2019-04-01T13:00:15.922Z,6.17
2019-04-01T13:02:46.525Z,6.17
2019-04-01T13:05:17.179Z,6.40
2019-04-01T13:07:47.792Z,6.00
2019-04-01T13:10:18.484Z,6.40
2019-04-01T13:12:49.066Z,6.63
2019-04-01T13:15:19.642Z,7.00
2019-04-01T13:17:50.323Z,6.87
2019-04-01T13:20:20.799Z,6.03
2019-04-01T13:22:51.325Z,5.87
2019-04-01T13:25:21.816Z,5.93
2019-04-01T13:30:34.931Z,6.57
2019-04-01T13:33:05.392Z,6.33
2019-04-01T13:35:35.907Z,5.40
2019-04-01T13:38:06.653Z,6.03
2019-04-01T13:40:37.244Z,6.40
2019-04-01T13:45:50.575Z,6.70
2019-04-01T13:48:20.996Z,6.53
2019-04-01T13:50:51.565Z,6.80
2019-04-01T13:53:22.137Z,6.33
2019-04-01T13:55:52.633Z,6.57
2019-04-01T13:58:23.124Z,6.43
2019-04-01T14:03:29.161Z,7.13
2019-04-01T14:05:59.884Z,6.17
2019-04-01T14:08:30.446Z,6.22
2019-04-01T14:11:00.927Z,5.95
2019-04-01T14:13:31.490Z,6.70
2019-04-01T14:16:02.937Z,6.50
2019-04-01T14:18:33.476Z,6.47
2019-04-01T14:21:15.324Z,6.30
2019-04-01T14:23:36.220Z,7.55
2019-04-01T14:26:06.721Z,6.85
2019-04-01T14:28:38.213Z,6.70
2019-04-01T14:31:08.809Z,7.60
2019-04-01T14:33:39.377Z,7.17
2019-04-01T14:36:09.868Z,6.65
2019-04-01T14:38:40.414Z,6.08
2019-04-01T14:41:11.043Z,6.70
2019-04-01T14:43:42.512Z,7.15
2019-04-01T14:46:13.007Z,7.50
2019-04-01T14:48:43.610Z,6.92
2019-04-01T14:51:14.119Z,7.12
2019-04-01T14:53:44.669Z,7.35
2019-04-01T14:56:15.212Z,6.78
2019-04-01T14:58:45.764Z,6.55
2019-04-01T15:01:16.571Z,5.75
2019-04-01T15:03:47.076Z,6.90
2019-04-01T15:06:18.612Z,6.17
2019-04-01T15:08:49.258Z,7.92
2019-04-01T15:11:19.849Z,7.37
2019-04-01T15:13:50.433Z,7.40
2019-04-01T15:16:21.007Z,7.42
2019-04-01T15:18:51.606Z,7.75
2019-04-01T15:21:22.245Z,7.83
2019-04-01T15:23:53.419Z,8.20
2019-04-01T15:26:24.146Z,8.88
2019-04-01T15:28:55.762Z,8.55
2019-04-01T15:31:26.514Z,7.65
2019-04-01T15:33:57.200Z,7.40
2019-04-01T15:36:27.842Z,8.18
2019-04-01T15:38:58.485Z,7.40
2019-04-01T15:41:29.019Z,7.83
2019-04-01T15:43:59.624Z,7.53
2019-04-01T15:46:30.193Z,6.90
2019-04-01T15:49:00.838Z,6.90
2019-04-01T15:51:31.441Z,7.45
2019-04-01T15:54:02.062Z,7.47
2019-04-01T15:59:28.752Z,8.08
